Portada
METAR-TAF:

METAR-TAF

Aeropuertos :

Gonabad, Irán

latitud: 34-22-51N, longitud: 58-38-23E, altitud: 1100 m

Observación

El informe se hizo hace 33 minutos, a las 20:00 UTC
Viento 17 kt del oeste
Temperatura 19°C
Humedad 43%
Presión 1008 hPa

METAR: OIMD 202000Z AUTO 28017KT //// // ////// 19/06 Q1008

Hora: 01:03 (20:33 UTC)


TAF: falta

Observaciones y pronósticos meteorológicos de más de 4000 aeropuertos (mensajes METAR y TAF).

Los puntos amarillos y rojos representan las estaciones disponibles.

Ponga el ratón en el punto deseado para ver el nombre de la estación.

Haga clic para ver las observaciones y los pronósticos meteorológicos.

Para cambiar el mapa : haga clic en los botones verdes con una cruz de color negro para hacer un zoom, en el botón verde con un guión para alejar o en las flechas verdes para mapas adyacentes.


METAR-TAF: